createdAt,value
2023-04-05T00:02:30.181Z,-4.04
2023-04-05T00:05:01.822Z,-4.09
2023-04-05T00:07:48.105Z,-4.12
2023-04-05T00:10:44.367Z,-4.23
2023-04-05T00:13:36.168Z,-4.19
2023-04-05T00:16:25.888Z,-4.20
2023-04-05T00:19:16.132Z,-4.25
2023-04-05T00:22:13.649Z,-4.35
2023-04-05T00:24:43.688Z,-4.37
2023-04-05T00:27:10.904Z,-4.40
2023-04-05T00:29:38.123Z,-4.42
2023-04-05T00:32:05.729Z,-4.44
2023-04-05T00:34:33.933Z,-4.48
2023-04-05T00:37:01.140Z,-4.48
2023-04-05T00:39:28.103Z,-4.47
2023-04-05T00:41:56.304Z,-4.54
2023-04-05T00:44:23.393Z,-4.51
2023-04-05T00:46:51.304Z,-4.65
2023-04-05T00:49:18.332Z,-4.54
2023-04-05T00:51:45.965Z,-4.54
2023-04-05T00:54:14.304Z,-4.59
2023-04-05T00:56:41.920Z,-4.58
2023-04-05T00:59:09.769Z,-4.60
2023-04-05T01:01:40.626Z,-4.64
2023-04-05T01:04:09.239Z,-4.67
2023-04-05T01:07:08.734Z,-4.71
2023-04-05T01:09:56.619Z,-4.76
2023-04-05T01:12:46.404Z,-4.73
2023-04-05T01:15:36.323Z,-4.68
2023-04-05T01:18:25.863Z,-4.51
2023-04-05T01:21:49.150Z,-4.41
2023-04-05T01:24:33.072Z,-4.33
2023-04-05T01:27:11.007Z,-4.24
2023-04-05T01:29:37.977Z,-4.15
2023-04-05T01:32:17.469Z,-4.14
2023-04-05T01:35:07.747Z,-3.97
2023-04-05T01:37:36.858Z,-3.95
2023-04-05T01:40:05.253Z,-3.84
2023-04-05T01:42:32.363Z,-3.78
2023-04-05T01:44:59.546Z,-3.70
2023-04-05T01:47:26.565Z,-3.68
2023-04-05T01:49:53.546Z,-3.60
2023-04-05T01:52:20.478Z,-3.52
2023-04-05T01:54:47.473Z,-3.46
2023-04-05T01:57:14.419Z,-3.49
2023-04-05T01:59:41.415Z,-3.41
2023-04-05T02:02:08.423Z,-3.34
2023-04-05T02:04:35.656Z,-3.42
2023-04-05T02:07:03.283Z,-3.32
2023-04-05T02:09:30.235Z,-3.26
2023-04-05T02:11:57.569Z,-3.27
2023-04-05T02:14:26.225Z,-3.38
2023-04-05T02:16:56.838Z,-3.52
2023-04-05T02:19:24.305Z,-3.50
2023-04-05T02:21:52.636Z,-3.51
2023-04-05T02:24:20.836Z,-3.58
2023-04-05T02:26:48.261Z,-3.54
2023-04-05T02:29:15.472Z,-3.48
2023-04-05T02:31:42.436Z,-3.44
2023-04-05T02:34:09.557Z,-3.39
2023-04-05T02:36:37.301Z,-3.51
2023-04-05T02:39:05.037Z,-3.34
2023-04-05T02:41:31.972Z,-3.33
2023-04-05T02:44:02.725Z,-3.40
2023-04-05T02:46:29.859Z,-3.40
2023-04-05T02:48:56.813Z,-3.34
2023-04-05T02:51:24.309Z,-3.37
2023-04-05T02:53:51.519Z,-3.36
2023-04-05T02:56:18.537Z,-3.54
2023-04-05T02:58:46.157Z,-3.40
2023-04-05T03:01:13.368Z,-3.33
2023-04-05T03:03:41.095Z,-3.28
2023-04-05T03:06:11.021Z,-3.23
2023-04-05T03:08:46.468Z,-3.22
2023-04-05T03:11:13.640Z,-3.18
2023-04-05T03:13:41.234Z,-3.14
2023-04-05T03:16:08.384Z,-3.12
2023-04-05T03:18:35.453Z,-3.14
2023-04-05T03:21:04.686Z,-3.16
2023-04-05T03:23:32.535Z,-3.18
2023-04-05T03:26:03.274Z,-3.17
2023-04-05T03:28:34.598Z,-3.24
2023-04-05T03:31:01.597Z,-3.24
2023-04-05T03:33:28.572Z,-3.22
2023-04-05T03:35:55.737Z,-3.35
2023-04-05T03:38:22.753Z,-3.32
2023-04-05T03:40:49.782Z,-3.33
2023-04-05T03:43:17.137Z,-3.40
2023-04-05T03:45:44.152Z,-3.40
2023-04-05T03:48:11.312Z,-3.45
2023-04-05T03:50:38.293Z,-3.45
2023-04-05T03:53:05.359Z,-3.47
2023-04-05T03:55:32.485Z,-3.59
2023-04-05T03:57:59.544Z,-3.61
2023-04-05T04:00:26.539Z,-3.74
2023-04-05T04:02:53.746Z,-3.93
2023-04-05T04:05:22.109Z,-4.11
2023-04-05T04:07:49.249Z,-4.03
2023-04-05T04:10:20.262Z,-4.02
2023-04-05T04:12:47.252Z,-3.97
2023-04-05T04:15:14.235Z,-3.88
2023-04-05T04:17:41.229Z,-3.83
2023-04-05T04:20:11.339Z,-3.82
2023-04-05T04:22:40.755Z,-3.74
2023-04-05T04:25:10.791Z,-3.72
2023-04-05T04:27:39.952Z,-3.76
2023-04-05T04:30:10.948Z,-3.78
2023-04-05T04:32:52.231Z,-3.79
2023-04-05T04:35:26.610Z,-3.81
2023-04-05T04:38:00.856Z,-3.76
2023-04-05T04:40:40.901Z,-3.76
2023-04-05T04:43:17.703Z,-3.79
2023-04-05T04:45:47.439Z,-3.67
2023-04-05T04:48:17.505Z,-3.56
2023-04-05T04:50:45.734Z,-3.47
2023-04-05T04:53:14.030Z,-3.40
2023-04-05T04:55:44.110Z,-3.39
2023-04-05T04:58:13.208Z,-3.29
2023-04-05T05:00:42.245Z,-3.34
2023-04-05T05:03:11.706Z,-3.14
2023-04-05T05:05:50.465Z,-3.06
2023-04-05T05:08:20.574Z,-2.98
2023-04-05T05:10:53.018Z,-2.97
2023-04-05T05:13:20.050Z,-2.79
2023-04-05T05:15:47.161Z,-2.63
2023-04-05T05:18:14.400Z,-2.48
2023-04-05T05:20:41.910Z,-2.34
2023-04-05T05:23:09.097Z,-2.31
2023-04-05T05:25:37.316Z,-2.28
2023-04-05T05:28:05.939Z,-2.19
2023-04-05T05:30:33.777Z,-2.13
2023-04-05T05:33:01.693Z,-2.27
2023-04-05T05:35:28.905Z,-2.18
2023-04-05T05:37:55.920Z,-1.96
2023-04-05T05:40:22.888Z,-1.80
2023-04-05T05:42:49.908Z,-1.64
2023-04-05T05:45:16.872Z,-1.54
2023-04-05T05:47:43.857Z,-1.57
2023-04-05T05:50:11.213Z,-1.32
2023-04-05T05:52:38.418Z,-1.17
2023-04-05T05:55:05.705Z,-1.08
2023-04-05T05:57:32.698Z,-1.08
2023-04-05T05:59:59.781Z,-0.98
2023-04-05T06:02:27.766Z,-0.88
2023-04-05T06:04:55.501Z,-0.82
2023-04-05T06:07:22.888Z,-0.78
2023-04-05T06:09:49.855Z,-0.79
2023-04-05T06:12:16.862Z,-0.73
2023-04-05T06:14:43.831Z,-0.77
2023-04-05T06:17:10.821Z,-0.64
2023-04-05T06:19:37.771Z,-0.54
2023-04-05T06:22:04.774Z,-0.51
2023-04-05T06:24:32.180Z,-0.57
2023-04-05T06:26:59.726Z,-0.38
2023-04-05T06:29:26.743Z,-0.28
2023-04-05T06:31:54.511Z,-0.28
2023-04-05T06:34:21.555Z,-0.14
2023-04-05T06:36:48.714Z,-0.04
2023-04-05T06:39:15.796Z,-0.07
2023-04-05T06:41:42.740Z,0.32
2023-04-05T06:44:09.689Z,0.45
2023-04-05T06:46:36.641Z,0.90
2023-04-05T06:49:04.273Z,0.84
2023-04-05T06:51:31.628Z,1.08
2023-04-05T06:53:58.987Z,1.06
2023-04-05T06:56:25.891Z,1.28
2023-04-05T06:58:53.385Z,1.52
2023-04-05T07:01:20.590Z,1.62
2023-04-05T07:03:47.593Z,1.39
2023-04-05T07:06:14.599Z,0.54
2023-04-05T07:08:41.728Z,0.73
2023-04-05T07:11:08.720Z,0.99
2023-04-05T07:13:36.324Z,1.28
2023-04-05T07:16:03.988Z,1.10
2023-04-05T07:18:31.276Z,0.77
2023-04-05T07:21:04.119Z,0.36
2023-04-05T07:23:31.442Z,0.69
2023-04-05T07:26:06.103Z,0.83
2023-04-05T07:28:35.895Z,0.83
2023-04-05T07:31:04.190Z,0.72
2023-04-05T07:33:31.492Z,1.02
2023-04-05T07:35:59.076Z,1.37
2023-04-05T07:38:27.808Z,1.59
2023-04-05T07:40:54.787Z,2.06
2023-04-05T07:43:22.041Z,1.86
2023-04-05T07:45:49.022Z,1.90
2023-04-05T07:48:16.188Z,2.00
2023-04-05T07:50:47.973Z,1.97
2023-04-05T07:53:15.306Z,1.53
2023-04-05T07:55:42.433Z,1.77
2023-04-05T07:58:09.463Z,2.21
2023-04-05T08:00:37.331Z,2.19
2023-04-05T08:03:05.080Z,2.40
2023-04-05T08:05:32.289Z,2.50
2023-04-05T08:07:59.312Z,2.52
2023-04-05T08:10:27.364Z,2.81
2023-04-05T08:12:54.567Z,1.77
2023-04-05T08:15:21.729Z,1.72
2023-04-05T08:17:48.839Z,2.39
2023-04-05T08:20:15.967Z,2.48
2023-04-05T08:22:43.274Z,1.95
2023-04-05T08:25:10.896Z,1.93
2023-04-05T08:27:37.921Z,2.24
2023-04-05T08:30:06.317Z,2.06
2023-04-05T08:32:33.394Z,2.70
2023-04-05T08:35:00.637Z,2.79
2023-04-05T08:37:28.269Z,3.31
2023-04-05T08:39:55.457Z,3.70
2023-04-05T08:42:37.732Z,4.33
2023-04-05T08:45:10.210Z,4.84
2023-04-05T08:47:39.405Z,4.86
2023-04-05T08:50:07.350Z,4.06
2023-04-05T08:52:38.209Z,4.13
2023-04-05T08:55:06.829Z,3.26
2023-04-05T08:57:36.902Z,3.02
2023-04-05T09:00:04.790Z,2.91
2023-04-05T09:02:33.515Z,2.86
2023-04-05T09:05:01.427Z,2.73
2023-04-05T09:07:31.520Z,3.10
2023-04-05T09:10:01.068Z,3.34
2023-04-05T09:12:28.689Z,3.50
2023-04-05T09:14:56.635Z,3.59
2023-04-05T09:17:24.207Z,3.23
2023-04-05T09:19:51.314Z,3.30
2023-04-05T09:22:18.838Z,3.31
2023-04-05T09:24:47.335Z,3.19
2023-04-05T09:27:18.531Z,3.03
2023-04-05T09:29:47.607Z,2.97
2023-04-05T09:32:15.934Z,3.00
2023-04-05T09:34:43.966Z,2.92
2023-04-05T09:37:17.747Z,2.83
2023-04-05T09:39:45.573Z,3.49
2023-04-05T09:42:13.560Z,3.95
2023-04-05T09:45:05.138Z,4.05
2023-04-05T09:47:36.853Z,4.59
2023-04-05T09:50:18.320Z,4.57
2023-04-05T09:52:45.874Z,4.58
2023-04-05T09:55:13.760Z,4.69
2023-04-05T09:57:44.047Z,4.30
2023-04-05T10:00:19.759Z,4.56
2023-04-05T10:02:47.860Z,4.63
2023-04-05T10:05:15.996Z,5.03
2023-04-05T10:07:43.760Z,5.48
2023-04-05T10:10:12.872Z,5.07
2023-04-05T10:12:41.896Z,4.30
2023-04-05T10:15:09.700Z,3.79
2023-04-05T10:17:49.663Z,3.27
2023-04-05T10:20:19.881Z,3.26
2023-04-05T10:22:52.846Z,3.44
2023-04-05T10:25:33.011Z,3.94
2023-04-05T10:28:11.798Z,4.34
2023-04-05T10:30:46.733Z,4.59
2023-04-05T10:33:35.213Z,4.46
2023-04-05T10:36:08.761Z,4.72
2023-04-05T10:39:00.328Z,4.88
2023-04-05T10:41:27.469Z,4.85
2023-04-05T10:43:57.379Z,4.11
2023-04-05T10:46:24.907Z,3.73
2023-04-05T10:49:16.720Z,3.75
2023-04-05T10:51:44.555Z,3.75
2023-04-05T10:54:12.039Z,3.74
2023-04-05T10:56:40.640Z,3.97
2023-04-05T10:59:08.798Z,4.35
2023-04-05T11:01:38.959Z,4.68
2023-04-05T11:04:13.875Z,4.64
2023-04-05T11:06:41.618Z,4.32
2023-04-05T11:09:15.693Z,4.96
2023-04-05T11:11:45.388Z,5.16
2023-04-05T11:14:34.275Z,5.54
2023-04-05T11:17:01.503Z,5.63
2023-04-05T11:19:44.030Z,5.32
2023-04-05T11:22:11.577Z,5.13
2023-04-05T11:24:59.322Z,4.72
2023-04-05T11:27:31.267Z,4.38
2023-04-05T11:30:02.721Z,4.34
2023-04-05T11:32:43.422Z,3.99
2023-04-05T11:35:14.736Z,4.18
2023-04-05T11:38:10.239Z,4.30
2023-04-05T11:40:43.905Z,4.29
2023-04-05T11:43:12.605Z,4.71
2023-04-05T11:45:42.159Z,4.92
2023-04-05T11:48:14.428Z,5.64
2023-04-05T11:50:42.345Z,5.66
2023-04-05T11:53:17.160Z,5.58
2023-04-05T11:55:46.579Z,5.45
2023-04-05T11:58:18.649Z,5.53
2023-04-05T12:00:47.016Z,5.75
2023-04-05T12:03:16.039Z,5.29
2023-04-05T12:05:47.255Z,5.18
2023-04-05T12:08:14.659Z,5.29
2023-04-05T12:10:41.665Z,5.49
2023-04-05T12:13:08.750Z,5.57
2023-04-05T12:15:43.229Z,5.61
2023-04-05T12:18:15.179Z,4.91
2023-04-05T12:20:42.898Z,4.56
2023-04-05T12:23:10.326Z,4.66
2023-04-05T12:25:39.426Z,4.84
2023-04-05T12:28:10.116Z,5.04
2023-04-05T12:30:52.342Z,5.48
2023-04-05T12:33:37.675Z,5.70
2023-04-05T12:36:05.924Z,6.01
2023-04-05T12:38:32.983Z,5.65
2023-04-05T12:41:01.380Z,5.88
2023-04-05T12:43:42.124Z,6.01
2023-04-05T12:46:18.094Z,5.92
2023-04-05T12:48:51.256Z,5.68
2023-04-05T12:51:18.296Z,5.74
2023-04-05T12:53:52.385Z,5.54
2023-04-05T12:56:19.420Z,5.65
2023-04-05T12:58:51.308Z,5.90
2023-04-05T13:01:19.488Z,6.35
2023-04-05T13:03:49.632Z,6.67
2023-04-05T13:06:16.971Z,6.79
2023-04-05T13:08:43.902Z,6.68
2023-04-05T13:11:11.445Z,6.38
2023-04-05T13:13:38.453Z,5.97
2023-04-05T13:16:05.888Z,5.68
2023-04-05T13:18:32.869Z,5.20
2023-04-05T13:20:59.858Z,4.94
2023-04-05T13:23:26.851Z,4.98
2023-04-05T13:25:53.779Z,5.27
2023-04-05T13:28:20.839Z,5.51
2023-04-05T13:30:48.660Z,5.36
2023-04-05T13:33:16.934Z,5.40
2023-04-05T13:35:44.026Z,5.33
2023-04-05T13:38:11.490Z,5.96
2023-04-05T13:40:38.777Z,5.95
2023-04-05T13:43:05.993Z,5.95
2023-04-05T13:45:33.269Z,5.75
2023-04-05T13:48:02.739Z,6.28
2023-04-05T13:50:29.831Z,6.25
2023-04-05T13:52:56.911Z,6.37
2023-04-05T13:55:23.828Z,6.68
2023-04-05T13:57:51.334Z,6.75
2023-04-05T14:00:18.511Z,6.88
2023-04-05T14:02:46.227Z,6.64
2023-04-05T14:05:13.278Z,6.90
2023-04-05T14:07:40.607Z,6.88
2023-04-05T14:10:08.091Z,6.63
2023-04-05T14:12:35.542Z,6.98
2023-04-05T14:15:02.590Z,7.12
2023-04-05T14:17:29.589Z,6.70
2023-04-05T14:19:56.582Z,7.16
2023-04-05T14:22:23.771Z,6.90
2023-04-05T14:24:50.846Z,6.63
2023-04-05T14:27:17.840Z,6.40
2023-04-05T14:29:46.012Z,6.13
2023-04-05T14:32:13.108Z,5.86
2023-04-05T14:34:40.148Z,5.98
2023-04-05T14:37:08.171Z,6.15
2023-04-05T14:39:35.295Z,6.23
2023-04-05T14:42:02.672Z,5.92
2023-04-05T14:44:29.611Z,5.86
2023-04-05T14:46:56.761Z,5.69
2023-04-05T14:49:23.702Z,6.17
2023-04-05T14:51:50.886Z,5.94
2023-04-05T14:54:18.752Z,5.87
2023-04-05T14:56:45.752Z,5.61
2023-04-05T14:59:12.811Z,5.87
2023-04-05T15:01:41.974Z,6.05
2023-04-05T15:04:09.515Z,6.09
2023-04-05T15:06:36.559Z,5.82
2023-04-05T15:09:03.899Z,5.70
2023-04-05T15:11:34.421Z,5.74
2023-04-05T15:14:01.637Z,5.61
2023-04-05T15:16:30.585Z,5.56
2023-04-05T15:18:59.433Z,5.28
2023-04-05T15:21:26.510Z,5.35
2023-04-05T15:23:53.540Z,5.30
2023-04-05T15:26:21.219Z,5.25
2023-04-05T15:28:48.223Z,5.59
2023-04-05T15:31:15.272Z,5.72
2023-04-05T15:33:42.380Z,5.34
2023-04-05T15:36:09.485Z,5.27
2023-04-05T15:38:36.693Z,5.04
2023-04-05T15:41:03.767Z,4.93
2023-04-05T15:43:31.720Z,4.87
2023-04-05T15:45:58.715Z,4.69
2023-04-05T15:48:25.823Z,4.52
2023-04-05T15:50:53.128Z,4.39
2023-04-05T15:53:20.251Z,4.47
2023-04-05T15:55:47.165Z,4.34
2023-04-05T15:58:14.201Z,4.28
2023-04-05T16:00:41.906Z,4.32
2023-04-05T16:03:09.792Z,4.21
2023-04-05T16:05:36.974Z,4.25
2023-04-05T16:08:03.920Z,4.26
2023-04-05T16:10:31.054Z,4.06
2023-04-05T16:12:58.054Z,4.25
2023-04-05T16:15:25.047Z,4.02
2023-04-05T16:17:52.078Z,4.31
2023-04-05T16:20:19.090Z,4.38
2023-04-05T16:22:46.376Z,4.35
2023-04-05T16:25:13.361Z,4.34
2023-04-05T16:27:40.422Z,4.39
2023-04-05T16:30:08.304Z,4.57
2023-04-05T16:32:35.327Z,4.37
2023-04-05T16:35:02.800Z,4.30
2023-04-05T16:37:29.800Z,4.21
2023-04-05T16:39:56.816Z,4.36
2023-04-05T16:42:23.825Z,4.44
2023-04-05T16:44:50.804Z,4.31
2023-04-05T16:47:17.899Z,4.08
2023-04-05T16:49:44.855Z,4.27
2023-04-05T16:52:11.913Z,4.24
2023-04-05T16:54:38.880Z,4.21
2023-04-05T16:57:06.239Z,4.06
2023-04-05T16:59:33.257Z,4.06
2023-04-05T17:02:00.271Z,3.99
2023-04-05T17:04:27.568Z,3.95
2023-04-05T17:06:54.541Z,3.81
2023-04-05T17:09:21.916Z,3.90
2023-04-05T17:11:49.220Z,3.98
2023-04-05T17:14:16.334Z,3.79
2023-04-05T17:16:43.311Z,3.97
2023-04-05T17:19:10.736Z,3.90
2023-04-05T17:21:37.750Z,3.87
2023-04-05T17:24:04.968Z,3.74
2023-04-05T17:26:32.010Z,3.76
2023-04-05T17:28:59.095Z,3.69
2023-04-05T17:31:26.198Z,3.67
2023-04-05T17:33:53.192Z,3.60
2023-04-05T17:36:20.180Z,3.44
2023-04-05T17:38:47.171Z,3.38
2023-04-05T17:41:14.293Z,3.30
2023-04-05T17:43:41.365Z,3.06
2023-04-05T17:46:10.713Z,3.10
2023-04-05T17:48:38.285Z,3.14
2023-04-05T17:51:10.046Z,3.17
2023-04-05T17:53:37.035Z,3.18
2023-04-05T17:56:04.483Z,3.16
2023-04-05T17:58:32.605Z,3.12
2023-04-05T18:00:59.915Z,3.06
2023-04-05T18:03:27.887Z,2.96
2023-04-05T18:05:56.053Z,3.13
2023-04-05T18:08:24.142Z,3.06
2023-04-05T18:10:56.871Z,3.05
2023-04-05T18:13:23.994Z,3.03
2023-04-05T18:15:57.776Z,2.99
2023-04-05T18:18:25.747Z,2.97
2023-04-05T18:20:53.591Z,2.92
2023-04-05T18:23:25.655Z,2.72
2023-04-05T18:25:53.890Z,2.83
2023-04-05T18:28:23.465Z,2.76
2023-04-05T18:30:51.526Z,2.72
2023-04-05T18:33:46.820Z,2.70
2023-04-05T18:36:13.930Z,2.66
2023-04-05T18:38:41.058Z,2.47
2023-04-05T18:41:09.611Z,2.49
2023-04-05T18:43:36.566Z,2.44
2023-04-05T18:46:03.702Z,2.42
2023-04-05T18:48:31.644Z,2.38
2023-04-05T18:50:58.575Z,2.14
2023-04-05T18:53:25.830Z,2.31
2023-04-05T18:55:53.585Z,2.25
2023-04-05T18:58:21.145Z,2.23
2023-04-05T19:00:49.468Z,2.24
2023-04-05T19:03:16.791Z,2.23
2023-04-05T19:05:50.876Z,2.21
2023-04-05T19:08:19.823Z,2.16
2023-04-05T19:10:46.822Z,2.15
2023-04-05T19:13:13.772Z,2.06
2023-04-05T19:15:40.819Z,2.09
2023-04-05T19:18:08.056Z,1.98
2023-04-05T19:20:35.121Z,1.91
2023-04-05T19:23:02.137Z,1.69
2023-04-05T19:25:29.216Z,1.68
2023-04-05T19:27:56.798Z,1.69
2023-04-05T19:30:23.876Z,1.65
2023-04-05T19:32:53.516Z,1.52
2023-04-05T19:35:20.958Z,1.51
2023-04-05T19:37:48.181Z,1.42
2023-04-05T19:40:15.267Z,1.30
2023-04-05T19:42:47.776Z,1.25
2023-04-05T19:45:23.987Z,1.22
2023-04-05T19:47:51.055Z,1.04
2023-04-05T19:50:36.711Z,0.99
2023-04-05T19:53:07.944Z,0.87
2023-04-05T19:55:37.535Z,0.79
2023-04-05T19:58:09.455Z,0.69
2023-04-05T20:00:36.418Z,0.70
2023-04-05T20:03:24.505Z,0.56
2023-04-05T20:05:58.396Z,0.56
2023-04-05T20:08:25.357Z,0.45
2023-04-05T20:10:53.373Z,0.36
2023-04-05T20:13:20.478Z,0.33
2023-04-05T20:15:52.874Z,0.29
2023-04-05T20:18:29.300Z,0.02
2023-04-05T20:20:57.085Z,0.05
2023-04-05T20:23:28.909Z,-0.08
2023-04-05T20:25:56.190Z,-0.13
2023-04-05T20:28:39.073Z,-0.31
2023-04-05T20:31:19.266Z,-0.28
2023-04-05T20:33:52.318Z,-0.34
2023-04-05T20:36:28.934Z,-0.47
2023-04-05T20:38:55.981Z,-0.54
2023-04-05T20:41:23.053Z,-0.58
2023-04-05T20:43:50.033Z,-0.58
2023-04-05T20:46:17.392Z,-0.59
2023-04-05T20:48:45.337Z,-0.71
2023-04-05T20:51:12.555Z,-0.89
2023-04-05T20:53:39.934Z,-0.90
2023-04-05T20:56:08.962Z,-1.21
2023-04-05T20:58:37.604Z,-0.97
2023-04-05T21:01:06.264Z,-1.03
2023-04-05T21:03:35.975Z,-1.08
2023-04-05T21:06:05.192Z,-1.09
2023-04-05T21:08:32.504Z,-1.09
2023-04-05T21:10:59.811Z,-1.18
2023-04-05T21:13:27.012Z,-1.25
2023-04-05T21:15:56.094Z,-1.17
2023-04-05T21:18:24.420Z,-1.12
2023-04-05T21:20:53.123Z,-1.11
2023-04-05T21:23:26.336Z,-1.13
2023-04-05T21:25:54.226Z,-1.14
2023-04-05T21:28:21.779Z,-1.16
2023-04-05T21:30:48.773Z,-1.16
2023-04-05T21:33:17.570Z,-1.17
2023-04-05T21:35:44.728Z,-1.22
2023-04-05T21:38:14.187Z,-1.20
2023-04-05T21:40:42.863Z,-1.28
2023-04-05T21:43:09.850Z,-1.29
2023-04-05T21:45:36.817Z,-1.33
2023-04-05T21:48:03.980Z,-1.35
2023-04-05T21:50:30.999Z,-1.39
2023-04-05T21:52:57.948Z,-1.50
2023-04-05T21:55:24.861Z,-1.54
2023-04-05T21:57:52.030Z,-1.52
2023-04-05T22:00:19.486Z,-1.56
2023-04-05T22:02:47.409Z,-1.60
2023-04-05T22:05:29.503Z,-1.63
2023-04-05T22:08:01.675Z,-1.71
2023-04-05T22:10:29.315Z,-1.73
2023-04-05T22:12:56.420Z,-1.66
2023-04-05T22:15:23.434Z,-1.68
2023-04-05T22:17:50.490Z,-1.74
2023-04-05T22:20:17.474Z,-1.82
2023-04-05T22:22:44.459Z,-1.72
2023-04-05T22:25:12.233Z,-1.78
2023-04-05T22:27:39.737Z,-1.86
2023-04-05T22:30:08.254Z,-1.78
2023-04-05T22:32:36.101Z,-1.86
2023-04-05T22:35:04.754Z,-1.81
2023-04-05T22:37:35.997Z,-1.94
2023-04-05T22:40:04.690Z,-1.92
2023-04-05T22:42:32.094Z,-2.04
2023-04-05T22:44:59.151Z,-2.02
2023-04-05T22:47:26.454Z,-1.99
2023-04-05T22:49:53.868Z,-2.02
2023-04-05T22:52:20.987Z,-2.14
2023-04-05T22:54:48.023Z,-2.18
2023-04-05T22:57:15.050Z,-2.13
2023-04-05T22:59:42.187Z,-2.18
2023-04-05T23:02:10.157Z,-2.22
2023-04-05T23:04:37.244Z,-2.27
2023-04-05T23:07:04.320Z,-2.26
2023-04-05T23:09:31.284Z,-2.27
2023-04-05T23:11:58.275Z,-2.26
2023-04-05T23:14:25.245Z,-2.28
2023-04-05T23:16:52.145Z,-2.28
2023-04-05T23:19:19.130Z,-2.33
2023-04-05T23:21:46.264Z,-2.30
2023-04-05T23:24:13.353Z,-2.38
2023-04-05T23:26:40.261Z,-2.40
2023-04-05T23:29:07.346Z,-2.39
2023-04-05T23:31:34.648Z,-2.46
2023-04-05T23:34:01.668Z,-2.62
2023-04-05T23:36:29.133Z,-2.54
2023-04-05T23:38:56.315Z,-2.53
2023-04-05T23:41:23.349Z,-2.59
2023-04-05T23:43:50.770Z,-2.57
2023-04-05T23:46:17.848Z,-2.53
2023-04-05T23:48:44.984Z,-2.54
2023-04-05T23:51:12.071Z,-2.51
2023-04-05T23:53:38.996Z,-2.54
2023-04-05T23:56:06.450Z,-2.55
2023-04-05T23:58:33.431Z,-2.79
